Spencer Heights, Illinois
Current Conditions -  °F | °C
As of 6:15 PM on Thursday 18 Dec 2014 (Local Time) from KCIR Reporting Station
Overcast Overcast  
Wind Chill: 38°   Ceiling: 1300
Heat Index: 38°   Visibility: 10mi
Dew Point: 34°   Wind: 3mph
Humidity: 86%   Direction: 40°NE
Pressure: 30.25"   Gusts: NA
Location:  37.1202°N, 89.219°W
Report Text: KCIR 190015Z AUTO 04003KT 10SM OVC013 03/01 A3025 RMK AO2 T00330011
Loading
Personal Weather Stations






























Interactive Weather Map New forecast layout! Learn more

10-Day Weather Forecast

Advertisements
Track Severe Weather on mobile